createdAt,value
2019-01-03T13:01:47.727Z,77
2019-01-03T13:02:45.686Z,76.6
2019-01-03T13:03:43.705Z,77.1
2019-01-03T13:04:41.698Z,75.6
2019-01-03T13:05:46.125Z,76.2
2019-01-03T13:06:39.083Z,76
2019-01-03T13:07:37.195Z,76.8
2019-01-03T13:08:35.514Z,75.7
2019-01-03T13:09:33.560Z,76.5
2019-01-03T13:10:32.533Z,76.9
2019-01-03T13:11:30.576Z,76.7
2019-01-03T13:12:28.546Z,76.8
2019-01-03T13:13:26.505Z,76.7
2019-01-03T13:14:25.552Z,76.5
2019-01-03T13:15:23.562Z,76.7
2019-01-03T13:16:21.489Z,76.1
2019-01-03T13:17:20.617Z,76.5
2019-01-03T13:18:18.859Z,76.4
2019-01-03T13:19:17.868Z,76.3
2019-01-03T13:20:15.798Z,76.4
2019-01-03T13:21:13.706Z,76.6
2019-01-03T13:22:11.745Z,76.7
2019-01-03T13:23:11.087Z,76.1
2019-01-03T13:24:09.093Z,76
2019-01-03T13:25:07.000Z,76.6
2019-01-03T13:26:05.461Z,76.1
2019-01-03T13:27:03.734Z,76.5
2019-01-03T13:28:01.776Z,75.5
2019-01-03T13:29:00.196Z,76.1
2019-01-03T13:29:58.118Z,76.5
2019-01-03T13:30:56.085Z,76.6
2019-01-03T13:31:55.917Z,76
2019-01-03T13:32:49.217Z,76.5
2019-01-03T13:33:47.510Z,76
2019-01-03T13:34:41.587Z,75.4
2019-01-03T13:35:39.592Z,75.6
2019-01-03T13:36:37.853Z,75.6
2019-01-03T13:37:37.149Z,76.4
2019-01-03T13:38:40.126Z,76.1
2019-01-03T13:39:33.149Z,75.9
2019-01-03T13:40:26.212Z,75.7
2019-01-03T13:41:19.260Z,75.9
2019-01-03T13:42:12.405Z,75.8
2019-01-03T13:43:05.357Z,76.2
2019-01-03T13:43:58.526Z,75.6
2019-01-03T13:44:51.665Z,75.4
2019-01-03T13:45:49.617Z,74.5
2019-01-03T13:46:42.577Z,74.5
2019-01-03T13:47:37.242Z,74.2
2019-01-03T13:48:30.433Z,74.6
2019-01-03T13:49:24.389Z,74.5
2019-01-03T13:50:17.435Z,74.5
2019-01-03T13:51:10.355Z,74.6
2019-01-03T13:52:03.602Z,74.3
2019-01-03T13:52:56.619Z,73.4
2019-01-03T13:53:49.568Z,73.7
2019-01-03T13:54:42.522Z,74.1
2019-01-03T13:55:35.612Z,73.2
2019-01-03T13:56:28.568Z,73.6
2019-01-03T13:57:21.504Z,74.3
2019-01-03T13:58:14.427Z,73.1
2019-01-03T13:59:07.300Z,73.2
2019-01-03T14:00:00.221Z,73.3
2019-01-03T14:00:53.150Z,73.3
2019-01-03T14:01:46.181Z,74.5
2019-01-03T14:02:39.187Z,73.6
2019-01-03T14:03:32.124Z,73.4
2019-01-03T14:04:25.083Z,73.4
2019-01-03T14:05:18.039Z,72.8
2019-01-03T14:06:10.967Z,72.8
2019-01-03T14:07:03.851Z,72.9
2019-01-03T14:07:56.770Z,73.5
2019-01-03T14:08:49.687Z,72.7
2019-01-03T14:09:42.593Z,73.6
2019-01-03T14:10:35.660Z,74.1
2019-01-03T14:11:29.631Z,74.1
2019-01-03T14:12:23.706Z,74
2019-01-03T14:13:16.688Z,74.4
2019-01-03T14:14:09.671Z,74.6
2019-01-03T14:15:02.604Z,74.2
2019-01-03T14:15:55.601Z,73.7
2019-01-03T14:16:48.564Z,74.3
2019-01-03T14:17:41.463Z,73.8
2019-01-03T14:18:34.466Z,73.9
2019-01-03T14:19:27.388Z,74.2
2019-01-03T14:20:20.338Z,74.1
2019-01-03T14:21:13.209Z,74.5
2019-01-03T14:22:06.102Z,74.7
2019-01-03T14:22:59.043Z,74.1
2019-01-03T14:23:51.976Z,74.5
2019-01-03T14:24:44.880Z,74.4
2019-01-03T14:25:37.846Z,74.9
2019-01-03T14:26:30.750Z,74.9
2019-01-03T14:27:23.769Z,75.4
2019-01-03T14:28:16.721Z,75.4
2019-01-03T14:29:09.699Z,75.1
2019-01-03T14:30:02.638Z,75.3
2019-01-03T14:30:55.517Z,75.2
2019-01-03T14:31:48.399Z,75.6
2019-01-03T14:32:41.315Z,75.7
2019-01-03T14:33:34.231Z,75.9
2019-01-03T14:34:27.330Z,75.4
2019-01-03T14:35:20.257Z,75.9
2019-01-03T14:36:13.146Z,75.8
2019-01-03T14:37:06.088Z,75.4
2019-01-03T14:37:59.067Z,75.1
2019-01-03T14:38:52.017Z,75.8
2019-01-03T14:39:44.965Z,75.7
2019-01-03T14:40:37.965Z,75.8
2019-01-03T14:41:30.905Z,76
2019-01-03T14:42:23.866Z,76.3
2019-01-03T14:43:16.835Z,76.4
2019-01-03T14:44:09.843Z,75.9
2019-01-03T14:45:02.775Z,75.9
2019-01-03T14:45:55.708Z,75.6
2019-01-03T14:46:48.582Z,76.1
2019-01-03T14:47:41.498Z,76.3
2019-01-03T14:48:34.544Z,76.5
2019-01-03T14:49:27.475Z,75.9
2019-01-03T14:50:20.379Z,76
2019-01-03T14:51:13.304Z,76.2
2019-01-03T14:52:06.192Z,76.2
2019-01-03T14:52:59.175Z,76
2019-01-03T14:53:52.118Z,76.4
2019-01-03T14:54:45.006Z,76.5
2019-01-03T14:55:37.978Z,76.1
2019-01-03T14:56:30.933Z,76.4
2019-01-03T14:57:23.878Z,76.8
2019-01-03T14:58:16.898Z,76.7
2019-01-03T14:59:09.860Z,76.7
2019-01-03T15:00:02.787Z,76.7
2019-01-03T15:00:55.760Z,76.2
2019-01-03T15:01:48.705Z,76.5
2019-01-03T15:02:41.646Z,76.5
2019-01-03T15:03:34.572Z,76.8
2019-01-03T15:04:27.542Z,76.9
2019-01-03T15:05:20.437Z,76.9
2019-01-03T15:06:13.346Z,76.7
2019-01-03T15:07:06.219Z,76.9
2019-01-03T15:07:59.173Z,76.8
2019-01-03T15:08:52.216Z,77.2
2019-01-03T15:09:45.178Z,77.1
2019-01-03T15:10:38.060Z,76.8
2019-01-03T15:11:31.123Z,76.3
2019-01-03T15:12:24.045Z,76.3
2019-01-03T15:13:17.153Z,76.1
2019-01-03T15:14:10.063Z,76
2019-01-03T15:15:03.020Z,76.5
2019-01-03T15:15:55.970Z,76.9
2019-01-03T15:16:48.929Z,76.6
2019-01-03T15:17:41.883Z,76.3
2019-01-03T15:18:34.746Z,76.6
2019-01-03T15:19:28.287Z,76.8
2019-01-03T15:20:21.179Z,77.1
2019-01-03T15:21:14.032Z,77.2
2019-01-03T15:22:06.950Z,76.9
2019-01-03T15:22:59.894Z,76.8
2019-01-03T15:23:52.778Z,76.5
2019-01-03T15:24:45.692Z,76.8
2019-01-03T15:25:38.603Z,77.1
2019-01-03T15:26:32.103Z,77.1
2019-01-03T15:27:25.966Z,77
2019-01-03T15:28:19.337Z,77
2019-01-03T15:29:12.283Z,77.1
2019-01-03T15:30:05.135Z,77
2019-01-03T15:30:58.061Z,76.6
2019-01-03T15:31:51.180Z,76.6
2019-01-03T15:32:44.140Z,77.1
2019-01-03T15:33:37.119Z,77.1
2019-01-03T15:34:30.119Z,77.5
2019-01-03T15:35:22.981Z,77.6
2019-01-03T15:36:15.921Z,77.2
2019-01-03T15:37:08.917Z,77.1
2019-01-03T15:38:01.832Z,77.1
2019-01-03T15:38:54.751Z,77.1
2019-01-03T15:39:47.639Z,77.3
2019-01-03T15:40:41.593Z,77.2
2019-01-03T15:41:34.538Z,77
2019-01-03T15:42:27.509Z,77.2
2019-01-03T15:43:20.436Z,77.3
2019-01-03T15:44:13.424Z,77.4
2019-01-03T15:45:06.438Z,77.6
2019-01-03T15:45:59.340Z,77.7
2019-01-03T15:46:52.297Z,77.5
2019-01-03T15:47:45.209Z,77.8
2019-01-03T15:48:38.120Z,77.5
2019-01-03T15:49:31.099Z,77.8
2019-01-03T15:50:24.044Z,78.1
2019-01-03T15:51:16.933Z,78.2
2019-01-03T15:52:09.788Z,77.9
2019-01-03T15:53:02.831Z,77.6
2019-01-03T15:53:55.752Z,78.1
2019-01-03T15:54:48.672Z,78.1
2019-01-03T15:55:41.666Z,77.9
2019-01-03T15:56:34.607Z,77.9
2019-01-03T15:57:27.498Z,78.1
2019-01-03T15:58:20.399Z,78.2
2019-01-03T15:59:13.322Z,78.2
2019-01-03T16:00:06.250Z,78.3
2019-01-03T16:00:59.170Z,78
2019-01-03T16:01:52.090Z,77.9
2019-01-03T16:02:45.009Z,77.9
2019-01-03T16:03:37.897Z,78
2019-01-03T16:04:30.886Z,78.1
2019-01-03T16:05:23.816Z,78.1
2019-01-03T16:06:16.772Z,77.9
2019-01-03T16:07:09.648Z,78
2019-01-03T16:08:02.521Z,78.2
2019-01-03T16:08:55.474Z,78.4
2019-01-03T16:09:48.370Z,78
2019-01-03T16:10:41.269Z,77.9
2019-01-03T16:11:34.196Z,78.1
2019-01-03T16:12:27.166Z,78.3
2019-01-03T16:13:20.086Z,78.6
2019-01-03T16:14:13.062Z,79
2019-01-03T16:15:06.407Z,79.1
2019-01-03T16:15:59.486Z,79.1
2019-01-03T16:16:52.422Z,78.6
2019-01-03T16:17:45.326Z,78.6
2019-01-03T16:18:38.266Z,78.6
2019-01-03T16:19:31.261Z,78.7
2019-01-03T16:20:24.117Z,78.7
2019-01-03T16:21:17.094Z,78.6
2019-01-03T16:22:10.051Z,78.8
2019-01-03T16:23:02.915Z,79
2019-01-03T16:23:55.812Z,78.8
2019-01-03T16:24:48.725Z,78.7
2019-01-03T16:25:41.645Z,78.7
2019-01-03T16:26:34.536Z,78.9
2019-01-03T20:28:59.023Z,82.3
2019-01-03T20:29:57.006Z,82.2
2019-01-03T20:30:54.914Z,82.1
2019-01-03T20:31:52.863Z,82
2019-01-03T20:32:50.846Z,82.2
2019-01-03T20:33:48.908Z,82.4
2019-01-03T20:34:46.830Z,82.2
2019-01-03T20:35:44.840Z,82
2019-01-03T20:36:42.825Z,82
2019-01-03T20:37:40.780Z,82.1
2019-01-03T20:38:38.855Z,81.9
2019-01-03T20:39:37.024Z,82.1
2019-01-03T20:40:35.002Z,82
2019-01-03T20:41:33.002Z,82
2019-01-03T20:42:30.937Z,82.1
2019-01-03T20:43:28.923Z,82.1
2019-01-03T20:44:31.963Z,82.1
2019-01-03T20:45:29.987Z,82.1
2019-01-03T20:46:27.945Z,82.1
2019-01-03T20:47:25.889Z,82.4
2019-01-03T20:48:23.830Z,82.1
2019-01-03T20:49:21.819Z,82
2019-01-03T20:50:19.782Z,82.3
2019-01-03T20:51:17.771Z,82.3
2019-01-03T20:52:15.775Z,82.3
2019-01-03T20:53:13.745Z,82.3
2019-01-03T20:54:11.713Z,82.3
2019-01-03T20:55:09.741Z,82.3
2019-01-03T20:56:07.766Z,82.3
2019-01-03T20:57:05.727Z,82.3
2019-01-03T20:58:03.632Z,82.3
2019-01-03T20:59:01.568Z,82.4
2019-01-03T20:59:59.535Z,82.5
2019-01-03T21:00:57.530Z,82.6
2019-01-03T21:01:55.482Z,82.5
2019-01-03T21:02:53.458Z,82.3
2019-01-03T21:03:51.483Z,82.3
2019-01-03T21:04:49.477Z,82.5
2019-01-03T21:05:47.417Z,82.6
2019-01-03T21:06:45.554Z,82.6
2019-01-03T21:07:43.494Z,82.7
2019-01-03T21:08:41.649Z,82.9
2019-01-03T21:09:39.544Z,82.9
2019-01-03T21:10:37.505Z,83
2019-01-03T21:11:35.404Z,83.2
2019-01-03T21:12:33.405Z,83.5
2019-01-03T21:13:31.425Z,83.5
2019-01-03T21:14:34.455Z,83.7
2019-01-03T21:15:27.460Z,83.6
2019-01-03T21:16:20.364Z,83.9
2019-01-03T21:17:14.153Z,84
2019-01-03T21:18:07.121Z,83.6
2019-01-03T21:19:00.117Z,83.7
2019-01-03T21:19:53.017Z,84.2
2019-01-03T21:20:45.948Z,84.1
2019-01-03T21:21:38.851Z,84
2019-01-03T21:22:31.729Z,84
2019-01-03T21:23:25.083Z,84.1
2019-01-03T21:24:18.217Z,84.2
2019-01-03T21:25:11.166Z,84.2
2019-01-03T21:26:04.139Z,84.1
2019-01-03T21:26:57.097Z,84.2
2019-01-03T21:27:50.062Z,84.4
2019-01-03T21:28:43.022Z,84.4
2019-01-03T21:29:35.968Z,84.6
2019-01-03T21:30:28.842Z,84.6
2019-01-03T21:31:21.803Z,84.6
2019-01-03T21:32:14.694Z,84.6
2019-01-03T21:33:07.626Z,84.6
2019-01-03T21:34:00.618Z,84.9
2019-01-03T21:34:53.571Z,84.9
2019-01-03T21:35:46.520Z,84.8
2019-01-03T21:36:39.400Z,84.8
2019-01-03T21:37:32.310Z,84.9
2019-01-03T21:38:25.256Z,84.8
2019-01-03T21:39:18.200Z,84.8
2019-01-03T21:40:11.116Z,84.9
2019-01-03T21:41:04.030Z,84.8
2019-01-03T21:41:56.913Z,84.8
2019-01-03T21:42:49.799Z,85
2019-01-03T21:43:42.682Z,85
2019-01-03T21:44:35.564Z,85.1
2019-01-03T21:45:28.455Z,85.2
2019-01-03T21:46:21.319Z,85.4
2019-01-03T21:47:14.223Z,85.3
2019-01-03T21:48:07.081Z,85.3
2019-01-03T21:48:59.993Z,85.3
2019-01-03T21:49:52.912Z,85.3
2019-01-03T21:50:45.900Z,85.4
2019-01-03T21:51:38.846Z,85.4
2019-01-03T21:52:31.729Z,85.6
2019-01-03T21:53:24.596Z,85.7
2019-01-03T21:54:19.614Z,85.7
2019-01-03T21:55:12.523Z,85.7
2019-01-03T21:56:05.491Z,85.6
2019-01-03T21:56:58.352Z,85.6
2019-01-03T21:57:51.235Z,85.6
2019-01-03T21:58:44.195Z,85.6
2019-01-03T21:59:37.241Z,85.7
2019-01-03T22:00:30.195Z,85.7
2019-01-03T22:01:23.097Z,85.7
2019-01-03T22:02:15.956Z,85.9
2019-01-03T22:03:08.838Z,86.1
2019-01-03T22:04:01.748Z,85.8
2019-01-03T22:04:54.753Z,86
2019-01-03T22:05:47.665Z,86
2019-01-03T22:06:40.646Z,85.9
2019-01-03T22:07:34.628Z,86
2019-01-03T22:08:27.640Z,86.1
2019-01-03T22:09:20.558Z,86
2019-01-03T22:10:13.514Z,85.9
2019-01-03T22:11:06.485Z,86
2019-01-03T22:11:59.502Z,86
2019-01-03T22:12:52.444Z,86
2019-01-03T22:13:45.491Z,86
2019-01-03T22:14:38.363Z,86
2019-01-03T22:15:31.238Z,86.1
2019-01-03T22:16:24.206Z,86.2
2019-01-03T22:17:17.111Z,86.1
2019-01-03T22:18:10.132Z,86
2019-01-03T22:19:03.000Z,86.1
2019-01-03T22:19:55.924Z,86.3
2019-01-03T22:20:48.871Z,86.1
2019-01-03T22:21:41.812Z,86.1
2019-01-03T22:22:34.700Z,86
2019-01-03T22:23:27.641Z,86.1
2019-01-03T22:24:20.531Z,86.1
2019-01-03T22:25:13.451Z,86
2019-01-03T22:26:06.367Z,86
2019-01-03T22:26:59.250Z,86
2019-01-03T22:27:52.153Z,86.1
2019-01-03T22:28:45.136Z,86.2
2019-01-03T22:29:38.927Z,86.4
2019-01-03T22:30:31.868Z,86.3
2019-01-03T22:31:24.789Z,86.3
2019-01-03T22:32:17.733Z,86.2
2019-01-03T22:33:10.626Z,86.3
2019-01-03T22:34:03.475Z,86.4
2019-01-03T22:34:56.365Z,86.6
2019-01-03T22:35:49.407Z,86.6
2019-01-03T22:36:42.372Z,86.6
2019-01-03T22:37:35.269Z,86.5
2019-01-03T22:38:28.237Z,86.5
2019-01-03T22:39:21.170Z,86.7
2019-01-03T22:40:14.047Z,86.6
2019-01-03T22:41:06.922Z,86.5
2019-01-03T22:41:59.913Z,86.5
2019-01-03T22:42:52.864Z,86.5
2019-01-03T22:43:45.778Z,86.6
2019-01-03T22:44:38.695Z,86.6
2019-01-03T22:45:31.795Z,86.7
2019-01-03T22:46:25.060Z,86.7
2019-01-03T22:47:17.971Z,86.8
2019-01-03T22:48:10.829Z,86.8
2019-01-03T22:49:03.756Z,86.8
2019-01-03T22:49:56.720Z,86.9
2019-01-03T22:50:49.631Z,86.8
2019-01-03T22:51:42.611Z,86.8
2019-01-03T22:52:35.624Z,86.8
2019-01-03T22:53:28.538Z,86.8
2019-01-03T22:54:21.458Z,86.7
2019-01-03T22:55:14.387Z,86.7
2019-01-03T22:56:07.487Z,86.8
2019-01-03T22:57:00.458Z,86.8
2019-01-03T22:57:53.418Z,86.8
2019-01-03T22:58:46.442Z,86.8
2019-01-03T22:59:39.453Z,86.9
2019-01-03T23:00:32.367Z,86.9
2019-01-03T23:01:25.476Z,87
2019-01-03T23:02:18.413Z,87.1
2019-01-03T23:03:11.344Z,87.1
2019-01-03T23:04:04.196Z,87.2
2019-01-03T23:04:57.361Z,87.2
2019-01-03T23:05:50.350Z,87.2
2019-01-03T23:06:43.243Z,87.2
2019-01-03T23:07:36.142Z,87.2
2019-01-03T23:08:29.004Z,87.3
2019-01-03T23:09:21.891Z,87.3
2019-01-03T23:10:14.809Z,87.2
2019-01-03T23:11:07.729Z,87.3
2019-01-03T23:12:00.610Z,87.3
2019-01-03T23:12:53.495Z,87.3
2019-01-03T23:13:46.420Z,87.3
2019-01-03T23:14:39.452Z,87.3
2019-01-03T23:15:32.572Z,87.3
2019-01-03T23:16:25.421Z,87.4
2019-01-03T23:17:18.293Z,87.4
2019-01-03T23:18:11.269Z,87.5
2019-01-03T23:19:04.213Z,87.5
2019-01-03T23:19:57.090Z,87.6
2019-01-03T23:20:49.982Z,87.6
2019-01-03T23:21:42.923Z,87.7
2019-01-03T23:22:35.838Z,87.6
2019-01-03T23:23:28.788Z,87.6
2019-01-03T23:24:21.914Z,87.5
2019-01-03T23:25:14.882Z,87.5
2019-01-03T23:26:07.835Z,87.5
2019-01-03T23:27:00.752Z,87.5
2019-01-03T23:27:53.638Z,87.5
2019-01-03T23:28:46.585Z,87.5
2019-01-03T23:29:39.501Z,87.6
2019-01-03T23:30:32.381Z,87.6
2019-01-03T23:31:25.264Z,87.7
2019-01-03T23:32:18.194Z,87.7
2019-01-03T23:33:11.178Z,87.7
2019-01-03T23:34:04.143Z,87.6
2019-01-03T23:34:57.043Z,87.6
2019-01-03T23:35:49.975Z,87.6
2019-01-03T23:36:42.864Z,87.7
2019-01-03T23:37:35.845Z,87.9
2019-01-03T23:38:28.765Z,87.9
2019-01-03T23:39:21.669Z,88
2019-01-03T23:40:14.532Z,88
2019-01-03T23:41:07.395Z,87.9
2019-01-03T23:42:00.419Z,87.9
2019-01-03T23:42:53.346Z,87.9
2019-01-03T23:43:46.367Z,88
2019-01-03T23:44:39.274Z,88
2019-01-03T23:45:32.359Z,88.2
2019-01-03T23:46:25.255Z,88.2
2019-01-03T23:47:18.163Z,88.2
2019-01-03T23:48:11.096Z,88.2
2019-01-03T23:49:03.999Z,88.4
2019-01-03T23:49:56.912Z,88.3
2019-01-03T23:50:49.826Z,88.3
2019-01-03T23:51:42.772Z,88.3
2019-01-03T23:52:35.811Z,88.2
2019-01-03T23:53:28.683Z,88.2
2019-01-03T23:54:21.560Z,88.1
2019-01-03T23:55:14.501Z,88.2
2019-01-03T23:56:07.428Z,88.2
2019-01-03T23:57:00.366Z,88.2
2019-01-03T23:57:53.277Z,88.2
2019-01-03T23:58:46.279Z,88.2
2019-01-03T23:59:39.198Z,88.3
